Time;durP1;ratioP1;P1;durP2;ratioP2;P2;SDS_P1;SDS_P2;PMS_P1;PMS_P2;Temp;Humidity;BMP_temperature;BMP_pressure;BME280_temperature;BME280_humidity;BME280_pressure;Samples;Min_cycle;Max_cycle;Signal;HPM_P1;HPM_P2
2023/08/05 00:01:11;;;;;;;8.82;7.03;;;;;;;14.81;100.00;100300.25;5066971;28;20136;-83
2023/08/05 00:03:40;;;;;;;11.23;7.78;;;;;;;14.88;100.00;100306.91;5049058;28;20046;-83
2023/08/05 00:06:12;;;;;;;9.15;6.88;;;;;;;15.09;100.00;100343.69;5047140;28;20046;-84
2023/08/05 00:08:46;;;;;;;9.55;7.18;;;;;;;15.03;100.00;100330.75;5057556;28;20045;-82
2023/08/05 00:11:18;;;;;;;8.02;6.47;;;;;;;14.92;100.00;100319.09;5056410;28;20505;-84
2023/08/05 00:13:46;;;;;;;8.32;6.55;;;;;;;15.04;100.00;100344.94;5031058;28;20408;-84
2023/08/05 00:16:16;;;;;;;8.77;7.25;;;;;;;14.79;100.00;100311.06;5050393;28;20084;-83
2023/08/05 00:18:45;;;;;;;8.27;7.13;;;;;;;14.52;100.00;100273.72;5050146;28;20051;-83
2023/08/05 00:21:13;;;;;;;9.95;7.40;;;;;;;14.66;100.00;100307.44;5050345;28;20390;-83
2023/08/05 00:23:41;;;;;;;10.70;7.80;;;;;;;14.70;100.00;100325.81;5053347;28;20041;-84
2023/08/05 00:26:11;;;;;;;8.93;7.25;;;;;;;14.69;100.00;100331.25;5046751;28;20044;-83
2023/08/05 00:28:39;;;;;;;11.32;7.22;;;;;;;14.66;100.00;100332.28;5044205;28;20513;-83
2023/08/05 00:31:09;;;;;;;7.55;6.75;;;;;;;14.67;100.00;100326.00;5028270;28;20076;-83
2023/08/05 00:33:46;;;;;;;11.33;7.77;;;;;;;14.57;100.00;100334.72;5049842;28;20041;-83
2023/08/05 00:36:22;;;;;;;9.95;7.80;;;;;;;14.63;100.00;100342.31;5054037;28;20045;-83
2023/08/05 00:38:56;;;;;;;10.10;7.22;;;;;;;14.62;100.00;100328.13;5059021;28;20060;-82
2023/08/05 00:44:27;;;;;;;10.88;8.07;;;;;;;14.41;100.00;100291.34;5046953;28;20068;-83
2023/08/05 00:46:58;;;;;;;11.55;8.18;;;;;;;14.32;100.00;100303.44;5064508;28;20080;-84
2023/08/05 00:49:33;;;;;;;10.02;7.85;;;;;;;14.21;100.00;100293.44;5056093;28;20143;-84
2023/08/05 00:52:03;;;;;;;10.30;7.43;;;;;;;14.58;100.00;100350.59;5048554;28;20050;-83
2023/08/05 00:54:35;;;;;;;9.52;7.28;;;;;;;14.57;100.00;100361.34;5056197;28;20824;-83
2023/08/05 00:57:06;;;;;;;8.48;7.18;;;;;;;14.50;100.00;100342.22;5053078;28;20067;-83
2023/08/05 00:59:39;;;;;;;9.30;7.32;;;;;;;14.46;100.00;100363.84;5073054;28;20424;-83
2023/08/05 01:02:12;;;;;;;10.45;7.80;;;;;;;14.39;100.00;100358.88;5055742;28;20036;-84
2023/08/05 01:04:44;;;;;;;9.07;7.80;;;;;;;13.71;100.00;100246.03;5061371;28;20056;-83
2023/08/05 01:07:23;;;;;;;8.35;7.38;;;;;;;14.36;100.00;100348.41;5057131;28;20072;-81
2023/08/05 01:09:56;;;;;;;9.98;7.32;;;;;;;14.35;100.00;100352.03;5062234;28;20108;-81
2023/08/05 01:12:25;;;;;;;9.27;7.30;;;;;;;14.25;100.00;100334.91;5052104;28;20037;-83
2023/08/05 01:15:01;;;;;;;11.02;7.72;;;;;;;14.40;100.00;100357.09;5037453;28;20112;-82
2023/08/05 01:17:34;;;;;;;9.05;7.60;;;;;;;14.33;100.00;100345.94;5049771;28;20045;-82
2023/08/05 01:20:06;;;;;;;9.88;6.85;;;;;;;14.17;100.00;100321.22;5039643;28;20041;-80
2023/08/05 01:22:41;;;;;;;9.85;6.57;;;;;;;14.34;100.00;100346.78;5049981;28;20144;-81
2023/08/05 01:25:29;;;;;;;8.27;7.05;;;;;;;14.32;100.00;100349.53;5045604;28;20041;-83
2023/08/05 01:28:12;;;;;;;9.13;6.75;;;;;;;14.28;100.00;100345.38;5046235;28;20041;-83
2023/08/05 01:30:46;;;;;;;7.85;6.80;;;;;;;13.92;100.00;100284.63;5053311;28;20075;-83
2023/08/05 01:33:17;;;;;;;9.02;7.10;;;;;;;14.24;100.00;100343.84;5052680;28;20044;-83
2023/08/05 01:35:51;;;;;;;7.63;6.63;;;;;;;14.02;100.00;100322.16;5046499;28;20065;-83
2023/08/05 01:38:25;;;;;;;7.43;6.45;;;;;;;13.73;100.00;100267.22;5053452;28;20064;-83
2023/08/05 01:41:02;;;;;;;6.72;6.00;;;;;;;13.92;100.00;100305.06;5037944;28;20549;-83
2023/08/05 01:43:35;;;;;;;10.35;6.88;;;;;;;14.10;100.00;100343.00;5048412;28;20047;-84
2023/08/05 01:46:04;;;;;;;7.80;6.80;;;;;;;13.58;100.00;100269.03;5044269;28;20049;-83
2023/08/05 01:48:38;;;;;;;7.40;6.53;;;;;;;13.88;100.00;100320.38;5055388;28;20049;-80
2023/08/05 01:51:13;;;;;;;7.95;6.72;;;;;;;13.86;100.00;100308.97;5040906;28;20041;-83
2023/08/05 01:53:45;;;;;;;8.13;7.07;;;;;;;13.89;100.00;100319.41;5050906;28;20033;-82
2023/08/05 01:56:18;;;;;;;8.93;6.95;;;;;;;13.55;100.00;100262.09;5047141;28;20083;-81
2023/08/05 01:58:51;;;;;;;7.88;6.45;;;;;;;13.90;100.00;100318.47;5052488;28;20049;-83
2023/08/05 02:01:24;;;;;;;7.13;6.38;;;;;;;13.61;100.00;100277.69;5052619;28;20048;-83
2023/08/05 02:03:53;;;;;;;9.45;6.63;;;;;;;13.90;100.00;100328.25;5066801;28;20036;-83
2023/08/05 02:06:23;;;;;;;7.63;6.45;;;;;;;13.81;100.00;100339.50;5049664;28;20064;-81
2023/08/05 02:08:56;;;;;;;12.52;7.07;;;;;;;13.81;100.00;100344.81;5052128;28;20060;-82
2023/08/05 02:11:32;;;;;;;8.73;6.60;;;;;;;13.76;100.00;100337.09;5056151;28;20045;-80
2023/08/05 02:14:01;;;;;;;8.38;6.70;;;;;;;13.49;100.00;100297.06;5041318;28;20147;-82
2023/08/05 02:16:29;;;;;;;16.30;7.30;;;;;;;13.74;100.00;100335.47;5046045;28;20049;-81
2023/08/05 02:18:57;;;;;;;10.23;7.18;;;;;;;13.70;100.00;100332.13;5047101;28;20052;-81
2023/08/05 02:21:40;;;;;;;11.25;7.15;;;;;;;13.67;100.00;100325.22;5042222;28;20033;-83
2023/08/05 02:24:12;;;;;;;11.88;7.70;;;;;;;13.26;100.00;100255.03;5054003;28;20515;-83
2023/08/05 02:26:43;;;;;;;9.98;7.65;;;;;;;13.60;100.00;100315.88;5031293;28;20559;-83
2023/08/05 02:29:21;;;;;;;12.15;7.32;;;;;;;13.11;100.00;100226.66;5041657;28;20049;-82
2023/08/05 02:31:52;;;;;;;9.75;7.25;;;;;;;13.61;100.00;100322.06;5054274;28;20126;-81
2023/08/05 02:34:26;;;;;;;9.07;6.90;;;;;;;13.59;100.00;100319.50;5060618;28;20098;-80
2023/08/05 02:37:07;;;;;;;8.00;7.10;;;;;;;12.98;100.00;100213.25;5082640;28;20531;-82
2023/08/05 02:39:41;;;;;;;10.75;7.55;;;;;;;13.58;100.00;100320.44;5061702;28;20091;-81
2023/08/05 02:42:15;;;;;;;11.23;7.90;;;;;;;13.31;100.00;100275.09;5052521;28;20065;-82
2023/08/05 02:44:45;;;;;;;10.07;7.53;;;;;;;13.51;100.00;100315.59;5053730;28;20041;-82
2023/08/05 02:47:17;;;;;;;10.52;7.70;;;;;;;13.48;100.00;100313.97;5039090;28;20054;-81
2023/08/05 02:49:48;;;;;;;8.57;7.28;;;;;;;13.46;100.00;100307.88;5064603;28;20054;-83
2023/08/05 02:52:27;;;;;;;13.77;7.20;;;;;;;13.33;100.00;100290.97;5055647;28;20064;-82
2023/08/05 02:54:57;;;;;;;7.45;6.65;;;;;;;13.46;100.00;100283.94;5071502;28;20116;-83
2023/08/05 02:57:30;;;;;;;8.27;6.72;;;;;;;12.93;100.00;100194.94;5080446;28;20045;-81
2023/08/05 03:00:04;;;;;;;7.88;6.78;;;;;;;12.97;100.00;100199.13;5058648;28;20041;-81
2023/08/05 03:02:33;;;;;;;7.43;6.43;;;;;;;13.65;100.00;100302.31;5064552;28;20037;-84
2023/08/05 03:05:08;;;;;;;7.90;6.32;;;;;;;13.58;100.00;100296.50;5061400;28;20064;-80
2023/08/05 03:07:40;;;;;;;8.65;6.68;;;;;;;13.47;100.00;100288.31;5041680;28;20546;-81
2023/08/05 03:10:10;;;;;;;8.55;6.90;;;;;;;13.40;100.00;100292.28;5072274;28;20045;-81
2023/08/05 03:12:42;;;;;;;8.52;6.53;;;;;;;13.14;100.00;100235.31;5071801;28;20053;-81
2023/08/05 03:15:12;;;;;;;7.45;6.65;;;;;;;13.33;100.00;100265.22;5052089;28;20048;-79
2023/08/05 03:17:43;;;;;;;8.32;6.93;;;;;;;13.52;100.00;100299.53;5067713;28;20112;-82
2023/08/05 03:20:34;;;;;;;8.80;6.75;;;;;;;13.50;100.00;100298.78;5067535;28;20103;-80
2023/08/05 03:23:12;;;;;;;8.20;7.13;;;;;;;12.90;100.00;100192.47;5070619;28;20101;-83
2023/08/05 03:25:45;;;;;;;8.07;6.45;;;;;;;13.46;100.00;100275.97;5059715;28;20053;-81
2023/08/05 03:28:18;;;;;;;7.32;6.55;;;;;;;12.85;100.00;100175.94;5048456;28;20033;-84
2023/08/05 03:30:52;;;;;;;10.40;7.03;;;;;;;13.18;100.00;100234.22;5071119;28;20041;-83
2023/08/05 03:33:26;;;;;;;9.95;6.85;;;;;;;13.32;100.00;100262.66;5071600;28;20073;-81
2023/08/05 03:35:56;;;;;;;10.90;7.40;;;;;;;13.44;100.00;100291.16;5063316;28;20053;-83
2023/08/05 03:38:28;;;;;;;;;;;;;;;13.41;100.00;100286.03;5061282;28;20041;-82
2023/08/05 03:41:01;;;;;;;9.77;6.95;;;;;;;13.34;100.00;100290.00;5089673;28;19919;-84
2023/08/05 03:43:32;;;;;;;9.95;6.97;;;;;;;13.30;100.00;100297.31;5091756;28;20060;-82
2023/08/05 03:46:03;;;;;;;8.60;7.13;;;;;;;13.17;100.00;100285.69;5071139;28;20049;-83
2023/08/05 03:48:31;;;;;;;7.53;6.70;;;;;;;13.14;100.00;100284.97;5055154;28;20033;-83
2023/08/05 03:51:01;;;;;;;10.68;7.55;;;;;;;12.67;100.00;100219.53;5065624;28;20048;-83
2023/08/05 03:53:29;;;;;;;;;;;;;;;13.21;100.00;100305.84;5036650;28;20049;-81
2023/08/05 03:56:00;;;;;;;10.20;7.43;;;;;;;13.20;100.00;100300.63;5042400;28;19921;-81
2023/08/05 03:58:28;;;;;;;9.60;7.10;;;;;;;12.91;100.00;100257.94;5044469;28;20080;-81
2023/08/05 04:01:01;;;;;;;8.85;7.70;;;;;;;13.18;100.00;100308.69;5036985;28;20041;-82
2023/08/05 04:03:31;;;;;;;10.77;7.57;;;;;;;13.17;100.00;100314.09;5044933;28;20048;-83
2023/08/05 04:06:11;;;;;;;7.72;6.93;;;;;;;13.16;100.00;100315.88;5051730;28;20041;-82
2023/08/05 04:08:41;;;;;;;7.80;6.78;;;;;;;13.08;100.00;100311.91;5060097;28;20041;-83
2023/08/05 04:11:14;;;;;;;9.00;7.05;;;;;;;13.21;100.00;100334.25;5045826;28;20051;-83
2023/08/05 04:13:45;;;;;;;10.07;6.75;;;;;;;13.29;100.00;100332.81;5056924;28;20049;-82
2023/08/05 04:16:23;;;;;;;7.80;6.40;;;;;;;13.09;100.00;100289.72;5051518;28;20033;-81
2023/08/05 04:18:52;;;;;;;10.77;7.05;;;;;;;13.44;100.00;100355.00;5047929;28;20065;-82
2023/08/05 04:21:35;;;;;;;7.60;6.50;;;;;;;13.40;100.00;100345.47;5037190;28;20041;-82
2023/08/05 04:24:22;;;;;;;6.88;6.13;;;;;;;13.65;100.00;100356.38;5054292;28;20017;-83
2023/08/05 04:27:08;;;;;;;7.68;5.65;;;;;;;13.68;100.00;100358.88;5069963;28;20044;-85
2023/08/05 04:29:37;;;;;;;8.68;6.15;;;;;;;13.67;100.00;100353.63;5061627;28;20113;-83
2023/08/05 04:32:10;;;;;;;11.68;6.20;;;;;;;13.60;100.00;100355.78;5025419;28;20506;-82
2023/08/05 04:34:38;;;;;;;10.27;6.20;;;;;;;13.59;100.00;100354.09;5046577;28;20044;-84
2023/08/05 04:37:16;;;;;;;6.50;5.72;;;;;;;13.58;100.00;100348.84;5039155;28;20053;-82
2023/08/05 04:39:45;;;;;;;6.10;5.50;;;;;;;13.57;100.00;100355.97;5055294;28;20048;-82
2023/08/05 04:42:26;;;;;;;6.65;5.50;;;;;;;13.56;100.00;100354.25;5055521;28;20103;-83
2023/08/05 04:44:55;;;;;;;7.53;6.05;;;;;;;13.63;100.00;100357.41;5043078;28;20053;-83
2023/08/05 04:47:25;;;;;;;7.97;5.88;;;;;;;13.70;100.00;100348.09;5046092;28;20076;-82
2023/08/05 04:49:53;;;;;;;8.15;6.28;;;;;;;13.78;100.00;100350.31;5037487;28;20053;-83
2023/08/05 04:52:22;;;;;;;8.65;5.90;;;;;;;13.81;100.00;100358.97;5047803;28;20111;-83
2023/08/05 04:54:51;;;;;;;7.10;5.63;;;;;;;13.82;100.00;100367.81;5051150;28;20064;-80
2023/08/05 04:57:19;;;;;;;8.45;6.18;;;;;;;13.82;100.00;100363.34;5052286;28;20475;-84
2023/08/05 04:59:48;;;;;;;7.07;6.00;;;;;;;13.82;100.00;100363.34;5047206;28;20057;-83
2023/08/05 05:02:16;;;;;;;6.93;6.22;;;;;;;13.39;100.00;100301.22;5048199;28;20053;-84
2023/08/05 05:04:47;;;;;;;7.75;6.30;;;;;;;13.73;100.00;100355.91;5054968;28;20037;-81
2023/08/05 05:07:18;;;;;;;8.45;6.55;;;;;;;13.89;100.00;100369.13;5048160;28;20292;-84
2023/08/05 05:09:46;;;;;;;9.65;7.38;;;;;;;13.88;100.00;100368.28;5043643;28;20409;-83
2023/08/05 05:12:17;;;;;;;8.57;7.10;;;;;;;13.92;100.00;100368.97;5050528;28;20045;-84
2023/08/05 05:14:46;;;;;;;12.85;7.72;;;;;;;13.83;100.00;100348.25;5035757;28;20049;-82
2023/08/05 05:17:17;;;;;;;14.07;8.80;;;;;;;13.99;100.00;100371.16;5050299;28;20736;-82
2023/08/05 05:20:07;;;;;;;14.45;8.88;;;;;;;13.83;100.00;100337.59;5047946;28;20063;-83
2023/08/05 05:22:35;;;;;;;10.70;8.93;;;;;;;14.00;100.00;100362.22;5045732;28;20052;-83
2023/08/05 05:25:04;;;;;;;13.45;9.43;;;;;;;13.72;100.00;100316.09;5066837;28;20541;-84
2023/08/05 05:27:34;;;;;;;10.88;9.00;;;;;;;14.03;100.00;100355.84;5039801;28;20559;-84
2023/08/05 05:30:05;;;;;;;14.32;9.00;;;;;;;13.96;100.00;100338.53;5056285;28;20040;-83
2023/08/05 05:32:36;;;;;;;10.77;8.93;;;;;;;14.13;100.00;100356.13;5055562;28;20060;-83
2023/08/05 05:35:08;;;;;;;11.57;8.77;;;;;;;14.19;100.00;100356.59;5054299;28;20048;-82
2023/08/05 05:37:38;;;;;;;11.57;8.68;;;;;;;14.24;100.00;100358.97;5054522;28;20025;-82
2023/08/05 05:40:08;;;;;;;;;;;;;;;14.26;100.00;100357.94;5059529;28;20225;-81
2023/08/05 05:42:37;;;;;;;12.88;9.27;;;;;;;14.31;100.00;100360.31;5064746;28;19921;-82
2023/08/05 05:45:07;;;;;;;9.85;8.48;;;;;;;14.22;100.00;100335.09;5052611;28;20045;-82
2023/08/05 05:47:35;;;;;;;;;;;;;;;14.38;100.00;100356.31;5048510;28;20128;-81
2023/08/05 05:50:04;;;;;;;10.05;8.32;;;;;;;14.35;100.00;100349.34;5052593;28;19924;-82
2023/08/05 05:52:37;;;;;;;9.65;7.68;;;;;;;14.31;100.00;100337.22;5044107;28;20045;-82
2023/08/05 05:55:08;;;;;;;11.57;8.48;;;;;;;14.55;100.00;100358.78;5059734;28;20053;-79
2023/08/05 05:57:39;;;;;;;10.48;6.95;;;;;;;14.60;100.00;100350.50;5060888;28;20045;-82
2023/08/05 06:00:09;;;;;;;10.38;7.63;;;;;;;14.76;100.00;100353.91;5036157;28;20053;-82
2023/08/05 06:02:40;;;;;;;9.90;7.93;;;;;;;14.75;100.00;100346.84;5056127;28;20029;-79
2023/08/05 06:05:11;;;;;;;10.88;8.23;;;;;;;14.74;100.00;100334.47;5063636;28;20083;-79
2023/08/05 06:07:42;;;;;;;12.55;7.85;;;;;;;14.79;100.00;100331.53;5054019;28;20042;-81
2023/08/05 06:10:10;;;;;;;;;;;;;;;15.02;100.00;100341.50;5064723;28;20041;-83
2023/08/05 06:12:38;;;;;;;11.88;7.10;;;;;;;15.01;100.00;100329.13;5072049;28;19933;-81
2023/08/05 06:15:07;;;;;;;10.23;6.88;;;;;;;15.20;100.00;100331.44;5066158;28;20029;-80
2023/08/05 06:17:36;;;;;;;7.63;6.18;;;;;;;15.29;100.00;100337.00;5065709;28;20040;-81
2023/08/05 06:20:05;;;;;;;7.90;5.40;;;;;;;15.39;100.00;100329.25;5071027;28;20064;-79
2023/08/05 06:22:33;;;;;;;8.68;5.00;;;;;;;15.64;100.00;100337.31;5071916;28;20124;-81
2023/08/05 06:25:12;;;;;;;8.55;4.72;;;;;;;15.80;100.00;100323.75;5053300;28;20051;-82
2023/08/05 06:27:43;;;;;;;9.52;5.55;;;;;;;16.07;100.00;100347.66;5045390;28;20048;-82
2023/08/05 06:30:12;;;;;;;7.93;5.72;;;;;;;16.00;100.00;100325.88;5055636;28;20045;-82
2023/08/05 06:32:40;;;;;;;6.88;4.88;;;;;;;16.17;100.00;100331.84;5035015;28;20049;-82
2023/08/05 06:35:09;;;;;;;5.28;4.50;;;;;;;16.37;100.00;100340.13;5054101;28;20073;-82
2023/08/05 06:37:36;;;;;;;6.93;4.28;;;;;;;16.58;100.00;100320.84;5046625;28;20128;-83
2023/08/05 06:40:23;;;;;;;5.95;3.90;;;;;;;17.00;100.00;100298.97;5039621;28;20053;-81
2023/08/05 06:42:52;;;;;;;6.32;3.70;;;;;;;17.80;100.00;100332.09;5055611;28;20051;-82
2023/08/05 06:45:20;;;;;;;4.22;2.88;;;;;;;18.21;100.00;100312.75;5052474;28;20123;-80
2023/08/05 06:47:48;;;;;;;5.57;3.25;;;;;;;18.44;100.00;100299.31;5042134;28;20490;-79
2023/08/05 06:50:18;;;;;;;2.60;2.40;;;;;;;18.78;100.00;100311.72;5052005;28;20056;-82
2023/08/05 06:52:47;;;;;;;5.65;2.60;;;;;;;18.96;100.00;100303.13;5052794;28;20103;-82
2023/08/05 06:55:19;;;;;;;3.35;2.30;;;;;;;19.07;100.00;100270.88;5060022;28;20064;-81
2023/08/05 06:57:48;;;;;;;3.67;2.42;;;;;;;19.36;100.00;100304.16;5049168;28;20083;-79
2023/08/05 07:00:18;;;;;;;3.85;2.72;;;;;;;19.42;100.00;100284.84;5052773;28;20049;-80
2023/08/05 07:02:49;;;;;;;2.60;2.22;;;;;;;19.75;100.00;100281.13;5041408;28;20094;-80
2023/08/05 07:05:17;;;;;;;2.70;2.13;;;;;;;19.93;100.00;100274.16;5060131;28;20056;-81
2023/08/05 07:07:47;;;;;;;2.60;2.40;;;;;;;19.68;100.00;100268.34;5041438;28;20059;-81
2023/08/05 07:10:17;;;;;;;4.35;2.55;;;;;;;19.50;100.00;100292.28;5061584;28;20059;-80
2023/08/05 07:12:49;;;;;;;4.15;2.70;;;;;;;19.41;100.00;100287.66;5058533;28;20060;-81
2023/08/05 07:15:17;;;;;;;4.38;2.63;;;;;;;19.34;100.00;100284.66;5057790;28;20068;-78
2023/08/05 07:17:45;;;;;;;3.97;2.70;;;;;;;19.14;100.00;100270.22;5055246;28;20052;-80
2023/08/05 07:20:14;;;;;;;4.97;2.53;;;;;;;19.23;100.00;100271.28;5056632;28;20049;-80
2023/08/05 07:22:42;;;;;;;4.57;2.70;;;;;;;19.47;100.00;100274.56;5051296;28;20049;-80
2023/08/05 07:25:11;;;;;;;3.67;2.90;;;;;;;19.73;100.00;100272.34;5058693;28;20045;-80
2023/08/05 07:27:46;;;;;;;3.92;2.92;;;;;;;19.80;100.00;100268.16;5055107;28;20052;-80
2023/08/05 07:30:16;;;;;;;4.18;3.08;;;;;;;19.86;100.00;100272.13;5058156;28;20041;-79
2023/08/05 07:32:45;;;;;;;2.63;2.40;;;;;;;19.84;100.00;100264.19;5049334;28;20655;-80
2023/08/05 07:35:14;;;;;;;3.45;2.75;;;;;;;20.04;100.00;100269.66;5048931;28;20051;-78
2023/08/05 07:37:42;;;;;;;5.13;2.72;;;;;;;20.11;100.00;100273.50;5036628;28;20076;-80
2023/08/05 07:40:12;;;;;;;4.07;2.88;;;;;;;20.08;100.00;100265.72;5062052;28;20083;-78
2023/08/05 07:42:40;;;;;;;5.47;2.80;;;;;;;20.24;100.00;100242.69;5047723;28;20096;-80
2023/08/05 07:45:16;;;;;;;6.68;2.65;;;;;;;20.72;100.00;100259.94;5065892;28;20048;-77
2023/08/05 07:47:45;;;;;;;5.47;2.97;;;;;;;20.67;100.00;100246.91;5048478;28;20064;-80
2023/08/05 07:50:16;;;;;;;6.57;3.60;;;;;;;20.23;100.00;100251.75;5037015;28;20075;-79
2023/08/05 07:52:45;;;;;;;5.53;3.58;;;;;;;19.94;100.00;100256.19;5062646;28;20128;-79
2023/08/05 07:55:14;;;;;;;4.63;3.38;;;;;;;19.55;100.00;100252.44;5034630;28;20462;-79
2023/08/05 07:57:43;;;;;;;5.35;4.07;;;;;;;18.98;100.00;100226.88;5049141;28;20058;-79
2023/08/05 08:00:15;;;;;;;6.23;3.70;;;;;;;18.97;100.00;100253.84;5054951;28;20418;-77
2023/08/05 08:02:44;;;;;;;4.80;3.65;;;;;;;18.93;100.00;100240.69;5050362;28;20494;-78
2023/08/05 08:05:13;;;;;;;6.10;4.13;;;;;;;18.68;100.00;100224.09;5052300;28;20559;-78
2023/08/05 08:07:45;;;;;;;6.90;4.05;;;;;;;18.97;100.00;100259.22;5046609;28;20041;-78
2023/08/05 08:10:12;;;;;;;6.00;4.40;;;;;;;19.15;100.00;100250.47;5051564;28;20052;-78
2023/08/05 08:12:41;;;;;;;5.97;4.25;;;;;;;19.49;100.00;100247.59;5036507;28;20055;-78
2023/08/05 08:15:10;;;;;;;6.65;4.80;;;;;;;19.80;100.00;100235.06;5055769;28;20041;-78
2023/08/05 08:17:40;;;;;;;8.70;5.30;;;;;;;20.12;100.00;100248.34;5046068;28;20104;-77
2023/08/05 08:20:09;;;;;;;6.20;4.63;;;;;;;20.46;100.00;100252.38;5052793;28;20076;-77
2023/08/05 08:22:37;;;;;;;4.90;4.13;;;;;;;20.94;100.00;100251.59;5050741;28;20476;-77
2023/08/05 08:25:06;;;;;;;5.25;3.97;;;;;;;21.40;100.00;100258.13;5036449;28;20055;-78
2023/08/05 08:27:35;;;;;;;4.88;3.60;;;;;;;20.96;100.00;100252.31;5069980;28;20056;-77
2023/08/05 08:30:04;;;;;;;5.70;4.30;;;;;;;20.79;100.00;100261.06;5047383;28;20037;-77
2023/08/05 08:32:31;;;;;;;6.38;4.55;;;;;;;20.37;100.00;100231.72;5056301;28;20689;-78
2023/08/05 08:35:02;;;;;;;6.10;3.78;;;;;;;20.40;100.00;100252.97;5062043;28;20049;-77
2023/08/05 08:37:32;;;;;;;4.57;3.85;;;;;;;20.29;100.00;100250.38;5048844;28;20053;-78
2023/08/05 08:40:00;;;;;;;5.68;3.83;;;;;;;20.04;100.00;100262.44;5078464;28;20068;-77
2023/08/05 08:42:28;;;;;;;5.20;3.90;;;;;;;19.76;100.00;100260.47;5058023;28;20053;-77
2023/08/05 08:44:57;;;;;;;5.00;3.67;;;;;;;19.46;100.00;100250.53;5055433;28;20085;-78
2023/08/05 08:47:26;;;;;;;5.15;3.78;;;;;;;19.35;100.00;100255.97;5052145;28;20507;-77
2023/08/05 08:49:57;;;;;;;7.78;4.20;;;;;;;19.61;100.00;100252.78;5049546;28;20075;-78
2023/08/05 08:52:29;;;;;;;4.05;3.47;;;;;;;19.91;100.00;100246.56;5036930;28;20029;-77
2023/08/05 08:54:57;;;;;;;4.05;3.42;;;;;;;20.29;100.00;100242.31;5034103;28;20045;-78
2023/08/05 08:57:25;;;;;;;5.30;3.05;;;;;;;20.61;100.00;100242.09;5044755;28;20081;-77
2023/08/05 08:59:55;;;;;;;6.22;2.83;;;;;;;20.72;100.00;100231.19;5065899;28;20056;-78
2023/08/05 09:02:25;;;;;;;3.97;2.40;;;;;;;20.90;98.49;100220.59;5073923;28;20049;-78
2023/08/05 09:04:58;;;;;;;5.95;2.25;;;;;;;21.41;96.61;100224.81;5071534;28;20021;-79
2023/08/05 09:07:27;;;;;;;3.15;2.00;;;;;;;22.04;90.75;100224.00;5060520;28;20037;-77
2023/08/05 09:09:57;;;;;;;3.30;1.80;;;;;;;22.54;81.86;100226.28;5057430;28;20055;-78
2023/08/05 09:12:29;;;;;;;;;;;;;;;22.48;71.36;100218.81;5047902;28;20048;-78
2023/08/05 09:14:57;;;;;;;6.10;1.50;;;;;;;22.52;74.30;100195.88;5048760;28;19925;-77
2023/08/05 09:17:26;;;;;;;3.60;1.70;;;;;;;22.65;74.46;100201.78;5040855;28;20478;-78
2023/08/05 09:19:55;;;;;;;4.43;1.88;;;;;;;22.66;76.38;100208.03;5052006;28;20405;-78
2023/08/05 09:22:23;;;;;;;3.00;1.95;;;;;;;22.90;76.41;100199.31;5048883;28;20053;-77
2023/08/05 09:25:01;;;;;;;4.70;2.13;;;;;;;23.03;71.97;100200.63;5039865;28;20115;-78
2023/08/05 09:27:45;;;;;;;2.10;1.73;;;;;;;22.96;71.75;100174.41;5040106;28;20670;-77
2023/08/05 09:30:16;;;;;;;2.65;1.80;;;;;;;22.95;71.82;100191.63;5050379;28;20108;-77
2023/08/05 09:32:45;;;;;;;4.38;2.22;;;;;;;22.64;73.15;100191.13;5050249;28;20203;-77
2023/08/05 09:35:17;;;;;;;3.22;2.17;;;;;;;22.52;76.82;100195.88;5050318;28;20044;-77
2023/08/05 09:37:48;;;;;;;2.22;2.03;;;;;;;22.49;74.41;100188.13;5045512;28;20063;-76
2023/08/05 09:40:22;;;;;;;2.88;2.00;;;;;;;22.55;73.28;100195.59;5039557;28;20059;-80
2023/08/05 09:42:51;;;;;;;3.67;2.08;;;;;;;22.56;74.11;100186.50;5049330;28;20049;-78
2023/08/05 09:45:21;;;;;;;4.53;2.30;;;;;;;22.60;75.27;100179.78;5036864;28;20124;-78
2023/08/05 09:47:49;;;;;;;4.57;2.40;;;;;;;22.62;74.23;100179.66;5045745;28;20600;-78
2023/08/05 09:50:20;;;;;;;3.28;1.90;;;;;;;22.28;75.21;100165.97;5030363;28;20422;-78
2023/08/05 09:52:51;;;;;;;2.88;2.05;;;;;;;22.24;77.06;100165.44;5044571;28;20044;-78
2023/08/05 09:55:20;;;;;;;4.30;2.00;;;;;;;22.21;74.50;100157.63;5027128;28;20055;-77
2023/08/05 09:57:50;;;;;;;4.47;2.50;;;;;;;22.24;76.23;100172.66;5041767;28;20057;-76
2023/08/05 10:00:19;;;;;;;2.30;1.77;;;;;;;22.08;76.21;100159.00;5049582;28;20041;-78
2023/08/05 10:02:48;;;;;;;6.88;2.45;;;;;;;21.91;76.57;100172.25;5038643;28;20080;-78
2023/08/05 10:05:18;;;;;;;4.85;2.00;;;;;;;21.76;80.96;100165.66;5051791;28;20141;-79
2023/08/05 10:07:53;;;;;;;3.20;2.60;;;;;;;21.55;82.47;100162.38;5044640;28;20041;-78
2023/08/05 10:10:22;;;;;;;4.45;2.25;;;;;;;21.63;82.71;100147.16;5043163;28;20049;-78
2023/08/05 10:12:55;;;;;;;3.25;1.95;;;;;;;21.84;78.54;100152.31;5030443;28;20049;-76
2023/08/05 10:15:29;;;;;;;4.47;2.88;;;;;;;22.02;78.75;100152.38;5051365;28;20072;-76
2023/08/05 10:17:57;;;;;;;2.33;1.70;;;;;;;22.07;78.74;100146.53;5045400;28;20062;-75
2023/08/05 10:20:26;;;;;;;2.85;2.10;;;;;;;22.26;76.86;100131.06;5034445;28;20103;-76
2023/08/05 10:23:03;;;;;;;2.55;2.10;;;;;;;22.53;76.04;100132.81;5064333;28;20044;-78
2023/08/05 10:25:52;;;;;;;3.75;2.00;;;;;;;22.49;74.06;100134.16;5064188;28;20048;-77
2023/08/05 10:28:40;;;;;;;2.80;1.77;;;;;;;22.28;69.04;100115.56;5057138;28;20052;-77
2023/08/05 10:31:24;;;;;;;3.50;2.25;;;;;;;22.38;68.40;100118.19;5055058;28;20032;-77
2023/08/05 10:34:09;;;;;;;3.65;1.98;;;;;;;22.80;64.84;100113.03;5050270;28;20045;-76
2023/08/05 10:36:44;;;;;;;4.30;1.65;;;;;;;23.02;60.83;100108.94;5060852;28;20405;-76
2023/08/05 10:39:42;;;;;;;1.88;1.58;;;;;;;22.68;61.18;100115.06;5038106;28;20045;-78
2023/08/05 10:42:31;;;;;;;2.88;1.70;;;;;;;22.53;64.20;100110.38;5029606;28;20045;-76
2023/08/05 10:45:05;;;;;;;2.13;1.63;;;;;;;22.66;62.48;100117.13;5048229;28;20425;-78
2023/08/05 10:47:36;;;;;;;2.13;1.58;;;;;;;22.34;62.38;100100.63;5039378;28;20107;-77
2023/08/05 10:50:04;;;;;;;2.28;1.65;;;;;;;22.35;62.55;100103.16;5027299;28;20600;-77
2023/08/05 10:52:37;;;;;;;3.35;1.73;;;;;;;22.45;64.62;100086.06;5049428;28;20490;-77
2023/08/05 10:55:12;;;;;;;3.40;1.65;;;;;;;22.59;65.01;100077.41;5050678;28;20052;-78
2023/08/05 10:57:55;;;;;;;2.35;1.45;;;;;;;22.93;64.44;100085.59;5030280;28;20056;-76
2023/08/05 11:00:24;;;;;;;;;;;;;;;23.16;61.68;100078.66;5040970;28;20069;-76
2023/08/05 11:03:25;;;;;;;3.60;1.67;;;;;;;23.32;57.58;100076.03;5044304;28;19921;-78
2023/08/05 11:05:55;;;;;;;3.28;1.52;;;;;;;23.47;59.80;100072.72;5058838;28;20076;-77
2023/08/05 11:08:26;;;;;;;1.50;1.35;;;;;;;23.79;55.79;100079.13;5051335;28;20049;-76
2023/08/05 11:10:57;;;;;;;2.55;1.48;;;;;;;24.11;53.94;100067.53;5039035;28;20070;-78
2023/08/05 11:13:28;;;;;;;3.25;1.45;;;;;;;24.05;53.25;100035.75;5079817;28;20037;-78
2023/08/05 11:16:08;;;;;;;1.58;1.42;;;;;;;24.09;53.94;100066.84;5061350;28;20049;-79
2023/08/05 11:18:38;;;;;;;;;;;;;;;24.08;54.93;100059.75;5040841;28;20079;-76
2023/08/05 11:21:09;;;;;;;3.10;1.70;;;;;;;24.01;55.76;100060.59;5050224;28;19921;-78
2023/08/05 11:23:39;;;;;;;3.60;1.67;;;;;;;23.56;55.87;100060.97;5054499;28;20110;-78
2023/08/05 11:26:09;;;;;;;1.90;1.38;;;;;;;23.09;57.73;100045.19;5053045;28;20114;-78
2023/08/05 11:28:43;;;;;;;;;;;;;;;23.16;57.78;100058.88;5031818;28;20068;-79
2023/08/05 11:31:22;;;;;;;2.63;1.63;;;;;;;23.32;57.18;100049.00;5050572;28;19925;-78
2023/08/05 11:33:50;;;;;;;2.20;1.30;;;;;;;23.55;57.74;100049.31;5048659;28;20057;-78
2023/08/05 11:36:24;;;;;;;2.78;1.70;;;;;;;23.87;54.79;100048.56;5033459;28;20065;-78
2023/08/05 11:38:54;;;;;;;2.40;1.70;;;;;;;24.17;55.72;100035.41;5049436;28;20106;-78
2023/08/05 11:41:24;;;;;;;1.88;1.10;;;;;;;24.29;52.93;100007.03;5050760;28;20049;-78
2023/08/05 11:43:54;;;;;;;1.88;1.20;;;;;;;24.19;52.33;100004.47;5054767;28;20044;-78